createdAt,value
2023-03-06T00:01:07.627Z,75.65
2023-03-06T00:03:34.231Z,75.97
2023-03-06T00:06:01.734Z,75.32
2023-03-06T00:08:29.021Z,75.82
2023-03-06T00:10:56.294Z,76.28
2023-03-06T00:13:22.866Z,75.86
2023-03-06T00:15:49.392Z,75.81
2023-03-06T00:18:16.043Z,75.69
2023-03-06T00:20:43.880Z,75.99
2023-03-06T00:23:11.188Z,75.95
2023-03-06T00:25:38.748Z,75.83
2023-03-06T00:28:06.224Z,75.76
2023-03-06T00:30:33.036Z,75.84
2023-03-06T00:32:59.440Z,75.34
2023-03-06T00:35:25.785Z,75.12
2023-03-06T00:37:52.163Z,75.46
2023-03-06T00:40:20.251Z,75.33
2023-03-06T00:42:47.602Z,75.55
2023-03-06T00:45:14.252Z,75.27
2023-03-06T00:47:41.116Z,75.61
2023-03-06T00:50:08.562Z,75.40
2023-03-06T00:52:35.261Z,75.43
2023-03-06T00:55:01.698Z,75.62
2023-03-06T00:57:28.125Z,75.54
2023-03-06T00:59:54.451Z,75.38
2023-03-06T01:02:21.326Z,75.41
2023-03-06T01:04:47.699Z,75.58
2023-03-06T01:07:14.148Z,75.44
2023-03-06T01:09:40.687Z,75.48
2023-03-06T01:12:07.458Z,75.59
2023-03-06T01:14:33.945Z,75.69
2023-03-06T01:17:00.301Z,75.66
2023-03-06T01:19:26.655Z,75.67
2023-03-06T01:21:52.991Z,75.84
2023-03-06T01:24:19.382Z,75.81
2023-03-06T01:26:45.736Z,75.78
2023-03-06T01:29:12.084Z,75.94
2023-03-06T01:31:38.443Z,75.71
2023-03-06T01:34:04.925Z,75.63
2023-03-06T01:36:31.408Z,76.10
2023-03-06T01:38:57.869Z,75.70
2023-03-06T01:41:24.374Z,76.08
2023-03-06T01:43:51.200Z,75.87
2023-03-06T01:46:33.268Z,76.21
2023-03-06T01:49:24.095Z,75.71
2023-03-06T01:51:57.557Z,75.82
2023-03-06T01:54:28.406Z,75.65
2023-03-06T01:57:02.340Z,75.90
2023-03-06T01:59:29.181Z,75.62
2023-03-06T02:01:57.175Z,76.06
2023-03-06T02:04:24.031Z,75.80
2023-03-06T02:06:50.750Z,75.92
2023-03-06T02:09:17.082Z,76.19
2023-03-06T02:11:45.200Z,76.22
2023-03-06T02:14:15.086Z,76.08
2023-03-06T02:16:41.709Z,75.89
2023-03-06T02:19:21.909Z,75.87
2023-03-06T02:21:48.258Z,76.10
2023-03-06T02:24:42.163Z,75.67
2023-03-06T02:27:10.001Z,75.83
2023-03-06T02:29:36.673Z,76.26
2023-03-06T02:32:03.700Z,75.76
2023-03-06T02:34:30.002Z,76.02
2023-03-06T02:37:06.845Z,76.03
2023-03-06T02:39:35.921Z,76.60
2023-03-06T02:42:02.276Z,76.07
2023-03-06T02:44:30.048Z,76.10
2023-03-06T02:46:56.408Z,75.53
2023-03-06T02:49:24.377Z,75.82
2023-03-06T02:51:51.809Z,75.89
2023-03-06T02:54:18.380Z,75.91
2023-03-06T02:56:45.398Z,75.95
2023-03-06T02:59:12.581Z,76.40
2023-03-06T03:01:39.208Z,76.73
2023-03-06T03:04:05.553Z,76.28
2023-03-06T03:06:31.917Z,76.33
2023-03-06T03:08:58.263Z,76.43
2023-03-06T03:11:24.610Z,76.62
2023-03-06T03:13:50.970Z,76.44
2023-03-06T03:16:17.826Z,76.24
2023-03-06T03:18:44.964Z,76.47
2023-03-06T03:21:13.258Z,76.59
2023-03-06T03:23:40.024Z,76.67
2023-03-06T03:26:08.530Z,76.61
2023-03-06T03:28:34.926Z,76.82
2023-03-06T03:31:06.372Z,76.48
2023-03-06T03:33:33.672Z,76.84
2023-03-06T03:36:01.402Z,76.77
2023-03-06T03:38:28.473Z,76.75
2023-03-06T03:40:55.300Z,76.80
2023-03-06T03:43:21.687Z,76.92
2023-03-06T03:45:48.362Z,77.12
2023-03-06T03:48:14.843Z,76.61
2023-03-06T03:50:41.193Z,76.76
2023-03-06T03:53:07.552Z,77.14
2023-03-06T03:55:33.920Z,76.92
2023-03-06T03:58:00.293Z,76.93
2023-03-06T04:00:26.653Z,76.99
2023-03-06T04:02:53.006Z,76.86
2023-03-06T04:05:19.470Z,77.02
2023-03-06T04:07:45.837Z,77.02
2023-03-06T04:10:13.389Z,77.17
2023-03-06T04:12:39.756Z,77.24
2023-03-06T04:15:06.893Z,76.92
2023-03-06T04:17:34.938Z,76.75
2023-03-06T04:20:04.457Z,76.79
2023-03-06T04:22:31.031Z,76.88
2023-03-06T04:24:57.465Z,76.79
2023-03-06T04:27:23.867Z,76.43
2023-03-06T04:29:50.258Z,76.32
2023-03-06T04:32:16.643Z,76.15
2023-03-06T04:34:43.000Z,76.12
2023-03-06T04:37:18.762Z,76.20
2023-03-06T04:39:45.140Z,75.84
2023-03-06T04:42:11.552Z,75.71
2023-03-06T04:44:37.940Z,75.56
2023-03-06T04:47:04.524Z,75.33
2023-03-06T04:49:31.189Z,75.34
2023-03-06T04:51:57.528Z,75.46
2023-03-06T04:54:24.096Z,75.58
2023-03-06T04:56:50.465Z,75.36
2023-03-06T04:59:16.994Z,75.35
2023-03-06T05:01:43.427Z,75.65
2023-03-06T05:04:09.880Z,75.69
2023-03-06T05:06:36.198Z,75.67
2023-03-06T05:09:02.629Z,75.52
2023-03-06T05:11:29.058Z,75.17
2023-03-06T05:13:55.416Z,75.15
2023-03-06T05:16:21.776Z,75.19
2023-03-06T05:18:50.521Z,75.18
2023-03-06T05:21:17.062Z,75.14
2023-03-06T05:23:43.390Z,75.54
2023-03-06T05:26:12.438Z,75.30
2023-03-06T05:28:38.972Z,75.10
2023-03-06T05:31:06.269Z,74.80
2023-03-06T05:33:33.896Z,74.83
2023-03-06T05:36:00.931Z,75.11
2023-03-06T05:38:27.768Z,74.94
2023-03-06T05:40:54.136Z,74.71
2023-03-06T05:43:20.530Z,75.00
2023-03-06T05:45:46.953Z,74.79
2023-03-06T05:48:13.759Z,74.98
2023-03-06T05:50:40.243Z,75.42
2023-03-06T05:53:07.680Z,75.08
2023-03-06T05:55:35.076Z,75.13
2023-03-06T05:58:01.547Z,75.24
2023-03-06T06:00:27.922Z,74.99
2023-03-06T06:02:54.347Z,74.70
2023-03-06T06:05:20.825Z,74.71
2023-03-06T06:07:47.241Z,74.75
2023-03-06T06:10:13.642Z,74.94
2023-03-06T06:12:40.172Z,74.66
2023-03-06T06:15:07.099Z,74.40
2023-03-06T06:17:33.448Z,74.37
2023-03-06T06:19:59.860Z,74.01
2023-03-06T06:22:26.308Z,73.99
2023-03-06T06:24:52.656Z,74.23
2023-03-06T06:27:19.005Z,74.11
2023-03-06T06:29:45.372Z,74.06
2023-03-06T06:32:12.224Z,73.71
2023-03-06T06:34:38.677Z,73.75
2023-03-06T06:37:05.335Z,73.63
2023-03-06T06:39:31.695Z,73.33
2023-03-06T06:42:20.032Z,73.28
2023-03-06T06:44:44.411Z,73.07
2023-03-06T06:47:26.378Z,73.20
2023-03-06T06:49:54.557Z,73.27
2023-03-06T06:52:21.670Z,73.19
2023-03-06T06:54:48.057Z,72.87
2023-03-06T06:57:14.876Z,73.12
2023-03-06T06:59:41.319Z,72.73
2023-03-06T07:02:07.799Z,72.82
2023-03-06T07:04:34.167Z,72.92
2023-03-06T07:07:01.122Z,72.56
2023-03-06T07:09:27.554Z,72.38
2023-03-06T07:11:53.999Z,72.92
2023-03-06T07:14:20.334Z,72.23
2023-03-06T07:16:46.677Z,72.65
2023-03-06T07:19:13.068Z,72.22
2023-03-06T07:21:39.438Z,72.12
2023-03-06T07:24:06.157Z,72.27
2023-03-06T07:26:34.587Z,72.12
2023-03-06T07:29:01.949Z,72.14
2023-03-06T07:31:28.570Z,71.91
2023-03-06T07:33:55.443Z,71.89
2023-03-06T07:36:23.635Z,71.67
2023-03-06T07:38:50.070Z,71.99
2023-03-06T07:41:17.521Z,71.83
2023-03-06T07:43:44.996Z,71.66
2023-03-06T07:46:13.038Z,71.95
2023-03-06T07:48:40.192Z,70.85
2023-03-06T07:51:10.269Z,71.23
2023-03-06T07:53:36.705Z,70.30
2023-03-06T07:56:08.831Z,70.29
2023-03-06T07:58:36.444Z,70.29
2023-03-06T08:01:04.888Z,70.13
2023-03-06T08:03:31.453Z,69.67
2023-03-06T08:06:15.266Z,69.52
2023-03-06T08:08:43.468Z,69.43
2023-03-06T08:11:11.306Z,69.91
2023-03-06T08:13:39.252Z,69.66
2023-03-06T08:16:06.304Z,69.82
2023-03-06T08:18:33.374Z,69.32
2023-03-06T08:21:09.036Z,69.48
2023-03-06T08:23:36.088Z,69.04
2023-03-06T08:26:05.522Z,69.04
2023-03-06T08:28:32.319Z,69.34
2023-03-06T08:31:07.098Z,69.21
2023-03-06T08:33:33.550Z,69.15
2023-03-06T08:36:01.397Z,68.75
2023-03-06T08:38:28.686Z,68.94
2023-03-06T08:40:55.095Z,69.13
2023-03-06T08:43:21.447Z,68.62
2023-03-06T08:45:56.576Z,68.62
2023-03-06T08:48:23.026Z,67.97
2023-03-06T08:50:49.865Z,68.09
2023-03-06T08:53:18.766Z,68.35
2023-03-06T08:55:45.635Z,68.28
2023-03-06T08:58:12.003Z,67.81
2023-03-06T09:00:38.485Z,67.95
2023-03-06T09:03:06.704Z,67.87
2023-03-06T09:05:33.557Z,67.80
2023-03-06T09:08:00.010Z,67.97
2023-03-06T09:10:27.341Z,68.42
2023-03-06T09:12:55.058Z,67.83
2023-03-06T09:15:22.871Z,67.48
2023-03-06T09:17:49.475Z,67.16
2023-03-06T09:20:16.745Z,67.36
2023-03-06T09:22:43.589Z,66.59
2023-03-06T09:25:13.082Z,66.70
2023-03-06T09:27:40.189Z,67.21
2023-03-06T09:30:07.388Z,66.54
2023-03-06T09:32:33.880Z,67.08
2023-03-06T09:35:01.123Z,66.64
2023-03-06T09:37:27.506Z,66.89
2023-03-06T09:39:53.872Z,66.48
2023-03-06T09:42:23.409Z,66.28
2023-03-06T09:44:59.138Z,66.72
2023-03-06T09:47:40.869Z,66.05
2023-03-06T09:50:19.343Z,66.00
2023-03-06T09:53:06.140Z,66.10
2023-03-06T09:55:35.615Z,65.97
2023-03-06T09:58:12.719Z,65.69
2023-03-06T10:00:55.337Z,65.83
2023-03-06T10:03:29.423Z,65.05
2023-03-06T10:06:04.741Z,65.07
2023-03-06T10:08:57.788Z,65.02
2023-03-06T10:11:37.772Z,64.76
2023-03-06T10:14:24.325Z,65.09
2023-03-06T10:16:50.894Z,65.14
2023-03-06T10:19:20.637Z,65.51
2023-03-06T10:22:04.495Z,65.59
2023-03-06T10:24:35.944Z,66.12
2023-03-06T10:27:23.918Z,66.69
2023-03-06T10:30:03.235Z,67.09
2023-03-06T10:32:49.868Z,66.84
2023-03-06T10:35:23.840Z,67.05
2023-03-06T10:37:50.340Z,67.41
2023-03-06T10:40:22.643Z,67.28
2023-03-06T10:42:56.075Z,66.74
2023-03-06T10:45:29.938Z,67.92
2023-03-06T10:48:11.964Z,67.77
2023-03-06T10:50:38.447Z,67.07
2023-03-06T10:53:07.457Z,66.95
2023-03-06T10:55:35.550Z,67.09
2023-03-06T10:58:18.414Z,66.67
2023-03-06T11:00:45.448Z,66.57
2023-03-06T11:03:21.967Z,67.02
2023-03-06T11:06:03.971Z,67.23
2023-03-06T11:08:31.051Z,67.30
2023-03-06T11:11:06.824Z,67.99
2023-03-06T11:13:36.512Z,67.58
2023-03-06T11:16:06.455Z,68.00
2023-03-06T11:18:59.993Z,68.40
2023-03-06T11:21:32.622Z,69.28
2023-03-06T11:24:05.855Z,69.57
2023-03-06T11:26:52.497Z,70.93
2023-03-06T11:29:38.935Z,72.33
2023-03-06T11:32:12.358Z,72.78
2023-03-06T11:35:02.530Z,73.59
2023-03-06T11:37:42.850Z,73.85
2023-03-06T11:40:09.278Z,73.97
2023-03-06T11:42:42.585Z,73.65
2023-03-06T11:45:37.226Z,74.08
2023-03-06T11:48:15.851Z,74.10
2023-03-06T11:50:49.699Z,74.54
2023-03-06T11:53:21.222Z,75.15
2023-03-06T11:56:23.825Z,75.19
2023-03-06T11:59:18.623Z,74.69
2023-03-06T12:02:05.244Z,74.79
2023-03-06T12:04:55.033Z,74.48
2023-03-06T12:07:30.466Z,73.57
2023-03-06T12:10:23.264Z,73.04
2023-03-06T12:13:03.982Z,72.83
2023-03-06T12:15:45.335Z,72.74
2023-03-06T12:18:38.433Z,72.29
2023-03-06T12:21:41.850Z,72.41
2023-03-06T12:24:10.991Z,71.96
2023-03-06T12:26:54.531Z,71.55
2023-03-06T12:29:36.702Z,71.05
2023-03-06T12:32:14.888Z,71.55
2023-03-06T12:35:01.471Z,72.11
2023-03-06T12:37:52.300Z,72.54
2023-03-06T12:40:32.485Z,72.23
2023-03-06T12:43:18.580Z,72.06
2023-03-06T12:45:46.233Z,71.98
2023-03-06T12:48:25.433Z,72.96
2023-03-06T12:50:52.539Z,74.04
2023-03-06T12:53:28.391Z,73.95
2023-03-06T12:55:57.151Z,74.34
2023-03-06T12:58:29.836Z,74.14
2023-03-06T13:01:14.751Z,74.18
2023-03-06T13:04:17.380Z,74.98
2023-03-06T13:07:02.069Z,76.38
2023-03-06T13:09:37.425Z,78.85
2023-03-06T13:12:12.854Z,80.16
2023-03-06T13:14:42.342Z,81.72
2023-03-06T13:17:24.014Z,82.89
2023-03-06T13:20:15.463Z,83.05
2023-03-06T13:22:43.926Z,83.38
2023-03-06T13:25:19.612Z,84.78
2023-03-06T13:28:01.025Z,84.65
2023-03-06T13:30:36.664Z,83.91
2023-03-06T13:33:37.064Z,83.57
2023-03-06T13:36:24.694Z,84.11
2023-03-06T13:38:51.632Z,83.72
2023-03-06T13:41:24.828Z,83.78
2023-03-06T13:43:59.440Z,83.43
2023-03-06T13:46:34.769Z,84.48
2023-03-06T13:49:13.311Z,84.24
2023-03-06T13:52:06.139Z,83.77
2023-03-06T13:54:58.472Z,84.18
2023-03-06T13:57:27.703Z,82.93
2023-03-06T14:00:31.227Z,82.50
2023-03-06T14:03:26.346Z,81.06
2023-03-06T14:05:53.050Z,80.46
2023-03-06T14:08:22.720Z,79.19
2023-03-06T14:11:00.244Z,79.08
2023-03-06T14:13:45.264Z,79.26
2023-03-06T14:16:22.262Z,79.24
2023-03-06T14:18:51.334Z,78.73
2023-03-06T14:21:39.494Z,78.75
2023-03-06T14:24:06.062Z,78.52
2023-03-06T14:26:39.376Z,78.72
2023-03-06T14:29:25.490Z,78.64
2023-03-06T14:31:54.679Z,78.91
2023-03-06T14:34:23.894Z,77.52
2023-03-06T14:36:53.006Z,78.03
2023-03-06T14:39:29.172Z,76.60
2023-03-06T14:42:28.489Z,76.44
2023-03-06T14:45:18.570Z,76.92
2023-03-06T14:47:52.610Z,76.22
2023-03-06T14:50:30.807Z,76.54
2023-03-06T14:53:02.906Z,76.26
2023-03-06T14:55:32.160Z,76.48
2023-03-06T14:58:14.874Z,76.10
2023-03-06T15:00:44.870Z,75.82
2023-03-06T15:03:18.198Z,74.92
2023-03-06T15:05:46.969Z,75.22
2023-03-06T15:08:19.205Z,75.08
2023-03-06T15:11:03.907Z,74.18
2023-03-06T15:13:32.141Z,73.23
2023-03-06T15:16:01.157Z,73.96
2023-03-06T15:18:39.115Z,74.19
2023-03-06T15:21:08.339Z,74.03
2023-03-06T15:23:40.963Z,73.90
2023-03-06T15:26:33.157Z,74.65
2023-03-06T15:29:10.066Z,74.19
2023-03-06T15:31:39.260Z,73.99
2023-03-06T15:34:11.445Z,74.28
2023-03-06T15:36:43.369Z,74.81
2023-03-06T15:39:40.052Z,74.55
2023-03-06T15:42:19.656Z,74.40
2023-03-06T15:44:51.632Z,74.35
2023-03-06T15:47:18.043Z,74.37
2023-03-06T15:49:44.607Z,74.30
2023-03-06T15:52:11.003Z,74.68
2023-03-06T15:54:37.610Z,74.91
2023-03-06T15:57:08.068Z,73.88
2023-03-06T15:59:42.896Z,74.77
2023-03-06T16:02:16.423Z,76.59
2023-03-06T16:04:43.109Z,79.90
2023-03-06T16:07:09.564Z,84.00
2023-03-06T16:09:36.229Z,86.11
2023-03-06T16:12:03.184Z,86.39
2023-03-06T16:14:29.641Z,87.54
2023-03-06T16:16:56.941Z,87.40
2023-03-06T16:19:26.859Z,88.23
2023-03-06T16:21:55.264Z,87.94
2023-03-06T16:24:21.902Z,88.23
2023-03-06T16:26:50.968Z,88.59
2023-03-06T16:29:22.770Z,88.88
2023-03-06T16:31:49.255Z,89.01
2023-03-06T16:34:16.042Z,88.41
2023-03-06T16:36:42.540Z,88.32
2023-03-06T16:39:14.643Z,88.21
2023-03-06T16:41:41.317Z,88.32
2023-03-06T16:44:10.034Z,88.56
2023-03-06T16:46:40.694Z,88.55
2023-03-06T16:49:07.239Z,88.04
2023-03-06T16:51:33.650Z,88.34
2023-03-06T16:54:00.153Z,87.55
2023-03-06T16:56:26.628Z,86.79
2023-03-06T16:58:53.013Z,85.94
2023-03-06T17:01:20.036Z,86.69
2023-03-06T17:03:47.153Z,87.52
2023-03-06T17:06:19.112Z,86.95
2023-03-06T17:08:46.209Z,87.32
2023-03-06T17:11:13.478Z,87.63
2023-03-06T17:13:40.668Z,87.53
2023-03-06T17:16:09.641Z,87.18
2023-03-06T17:18:36.094Z,87.05
2023-03-06T17:21:02.483Z,87.40
2023-03-06T17:23:29.610Z,86.38
2023-03-06T17:26:18.697Z,86.40
2023-03-06T17:28:45.630Z,86.04
2023-03-06T17:31:23.120Z,86.07
2023-03-06T17:33:51.396Z,87.18
2023-03-06T17:36:19.196Z,86.66
2023-03-06T17:38:45.772Z,86.34
2023-03-06T17:41:13.035Z,85.37
2023-03-06T17:43:40.269Z,85.96
2023-03-06T17:46:12.150Z,85.38
2023-03-06T17:48:39.795Z,85.60
2023-03-06T17:51:06.650Z,85.29
2023-03-06T17:53:33.178Z,85.50
2023-03-06T17:55:59.629Z,85.72
2023-03-06T17:58:26.884Z,84.79
2023-03-06T18:00:53.766Z,85.03
2023-03-06T18:03:20.304Z,85.00
2023-03-06T18:05:46.725Z,85.46
2023-03-06T18:08:13.553Z,85.33
2023-03-06T18:10:41.324Z,85.07
2023-03-06T18:13:08.973Z,84.96
2023-03-06T18:15:39.434Z,85.22
2023-03-06T18:18:06.275Z,84.51
2023-03-06T18:20:32.931Z,83.93
2023-03-06T18:23:03.402Z,84.56
2023-03-06T18:25:31.727Z,84.49
2023-03-06T18:27:58.093Z,83.50
2023-03-06T18:30:24.592Z,83.88
2023-03-06T18:32:50.982Z,83.71
2023-03-06T18:35:17.478Z,83.76
2023-03-06T18:37:43.958Z,83.05
2023-03-06T18:40:11.073Z,84.03
2023-03-06T18:42:37.433Z,83.51
2023-03-06T18:45:04.259Z,84.07
2023-03-06T18:47:30.625Z,83.63
2023-03-06T18:49:57.026Z,83.89
2023-03-06T18:52:23.393Z,84.06
2023-03-06T18:54:50.459Z,84.82
2023-03-06T18:57:16.792Z,84.43
2023-03-06T18:59:43.286Z,84.75
2023-03-06T19:02:10.807Z,84.88
2023-03-06T19:04:37.805Z,84.98
2023-03-06T19:07:05.539Z,85.27
2023-03-06T19:09:31.910Z,84.96
2023-03-06T19:11:59.233Z,84.78
2023-03-06T19:14:27.881Z,84.68
2023-03-06T19:16:54.814Z,85.22
2023-03-06T19:19:26.023Z,84.04
2023-03-06T19:21:53.425Z,85.14
2023-03-06T19:24:19.800Z,85.02
2023-03-06T19:26:46.238Z,84.78
2023-03-06T19:29:12.596Z,85.18
2023-03-06T19:31:38.982Z,84.54
2023-03-06T19:34:05.350Z,84.87
2023-03-06T19:36:33.996Z,84.99
2023-03-06T19:39:03.525Z,85.38
2023-03-06T19:41:29.910Z,85.60
2023-03-06T19:43:58.835Z,84.59
2023-03-06T19:46:26.290Z,85.38
2023-03-06T19:48:58.115Z,84.44
2023-03-06T19:51:25.358Z,84.25
2023-03-06T19:53:52.368Z,84.07
2023-03-06T19:56:25.972Z,84.39
2023-03-06T19:58:52.674Z,84.46
2023-03-06T20:01:21.295Z,84.12
2023-03-06T20:03:49.304Z,84.14
2023-03-06T20:06:18.450Z,83.88
2023-03-06T20:08:46.227Z,84.43
2023-03-06T20:11:17.958Z,83.99
2023-03-06T20:13:47.395Z,84.33
2023-03-06T20:16:14.487Z,84.30
2023-03-06T20:18:40.893Z,84.25
2023-03-06T20:21:07.348Z,84.01
2023-03-06T20:23:33.922Z,84.05
2023-03-06T20:26:11.917Z,84.12
2023-03-06T20:28:39.513Z,84.27
2023-03-06T20:31:13.823Z,84.82
2023-03-06T20:33:40.278Z,84.54
2023-03-06T20:36:21.274Z,84.88
2023-03-06T20:38:47.950Z,85.20
2023-03-06T20:41:19.129Z,85.09
2023-03-06T20:43:45.534Z,85.18
2023-03-06T20:46:12.684Z,85.49
2023-03-06T20:48:40.016Z,85.58
2023-03-06T20:51:13.588Z,85.95
2023-03-06T20:53:40.013Z,85.91
2023-03-06T20:56:06.675Z,85.72
2023-03-06T20:58:33.038Z,85.87
2023-03-06T21:01:02.029Z,85.64
2023-03-06T21:03:29.273Z,85.41
2023-03-06T21:05:55.733Z,85.35
2023-03-06T21:08:22.230Z,85.19
2023-03-06T21:10:48.821Z,84.74
2023-03-06T21:13:15.208Z,84.92
2023-03-06T21:15:43.386Z,85.23
2023-03-06T21:18:11.101Z,85.32
2023-03-06T21:20:38.718Z,84.77
2023-03-06T21:23:06.091Z,84.50
2023-03-06T21:25:32.584Z,85.21
2023-03-06T21:28:00.172Z,84.81
2023-03-06T21:30:27.764Z,84.93
2023-03-06T21:32:55.574Z,84.22
2023-03-06T21:35:22.263Z,83.76
2023-03-06T21:37:48.625Z,84.38
2023-03-06T21:40:15.044Z,84.50
2023-03-06T21:42:41.572Z,84.90
2023-03-06T21:45:08.793Z,84.62
2023-03-06T21:47:38.867Z,84.45
2023-03-06T21:50:07.252Z,84.79
2023-03-06T21:52:33.621Z,84.66
2023-03-06T21:55:00.127Z,85.00
2023-03-06T21:57:26.550Z,84.58
2023-03-06T21:59:52.894Z,84.65
2023-03-06T22:02:19.288Z,83.67
2023-03-06T22:04:50.098Z,84.23
2023-03-06T22:07:16.649Z,84.17
2023-03-06T22:09:43.082Z,83.80
2023-03-06T22:12:09.598Z,83.80
2023-03-06T22:14:36.018Z,84.09
2023-03-06T22:17:02.519Z,84.19
2023-03-06T22:19:28.944Z,84.04
2023-03-06T22:21:55.632Z,84.32
2023-03-06T22:24:21.980Z,84.62
2023-03-06T22:26:48.421Z,84.63
2023-03-06T22:29:14.786Z,84.26
2023-03-06T22:31:41.165Z,84.33
2023-03-06T22:34:07.695Z,84.63
2023-03-06T22:36:34.071Z,84.49
2023-03-06T22:39:02.319Z,84.72
2023-03-06T22:41:28.960Z,84.31
2023-03-06T22:44:00.029Z,84.03
2023-03-06T22:46:27.033Z,84.16
2023-03-06T22:48:55.882Z,84.04
2023-03-06T22:51:22.234Z,83.58
2023-03-06T22:53:49.279Z,83.39
2023-03-06T22:56:18.943Z,83.45
2023-03-06T22:58:46.349Z,83.47
2023-03-06T23:01:15.548Z,82.55
2023-03-06T23:03:46.939Z,82.45
2023-03-06T23:06:21.920Z,82.83
2023-03-06T23:08:50.974Z,82.44
2023-03-06T23:11:19.424Z,82.25
2023-03-06T23:13:46.557Z,82.22
2023-03-06T23:16:13.044Z,82.06
2023-03-06T23:18:39.936Z,82.08
2023-03-06T23:21:08.729Z,82.10
2023-03-06T23:23:36.299Z,81.67
2023-03-06T23:26:03.444Z,81.19
2023-03-06T23:28:30.504Z,82.05
2023-03-06T23:30:57.187Z,82.31
2023-03-06T23:33:23.815Z,81.79
2023-03-06T23:35:50.448Z,81.89
2023-03-06T23:38:16.840Z,81.82
2023-03-06T23:40:43.188Z,81.50
2023-03-06T23:43:09.857Z,81.37
2023-03-06T23:45:36.544Z,81.70
2023-03-06T23:48:04.936Z,81.39
2023-03-06T23:50:31.855Z,81.82
2023-03-06T23:52:58.271Z,81.50
2023-03-06T23:55:24.639Z,81.22
2023-03-06T23:57:50.995Z,81.25
